Time;durP1;ratioP1;P1;durP2;ratioP2;P2;SDS_P1;SDS_P2;PMS_P1;PMS_P2;Temp;Humidity;BMP_temperature;BMP_pressure;BME280_temperature;BME280_humidity;BME280_pressure;Samples;Min_cycle;Max_cycle;Signal;HPM_P1;HPM_P2
2022/01/28 00:00:32;;;;;;;19.05;2.60;;;7.10;99.90;;;;;;5028520;28;20085;-74
2022/01/28 00:03:06;;;;;;;19.85;2.28;;;7.10;99.90;;;;;;5022082;28;20047;-74
2022/01/28 00:05:33;;;;;;;20.98;2.53;;;7.10;99.90;;;;;;5033197;28;20438;-74
2022/01/28 00:07:59;;;;;;;16.65;2.33;;;7.10;99.90;;;;;;5033071;28;20030;-74
2022/01/28 00:10:27;;;;;;;15.45;2.10;;;7.10;99.90;;;;;;5015401;28;20160;-74
2022/01/28 00:15:25;;;;;;;21.02;2.88;;;7.10;99.90;;;;;;5033200;28;20014;-74
2022/01/28 00:18:29;;;;;;;15.15;1.98;;;7.10;99.90;;;;;;5033182;28;20037;-74
2022/01/28 00:39:42;;;;;;;21.25;2.42;;;7.10;99.90;;;;;;4990295;28;20084;-74
2022/01/28 00:42:08;;;;;;;23.13;2.42;;;7.10;99.90;;;;;;4990304;28;20041;-73
2022/01/28 00:44:34;;;;;;;14.07;2.30;;;7.10;99.90;;;;;;4990822;28;20105;-74
2022/01/28 00:46:59;;;;;;;23.40;2.88;;;7.10;99.90;;;;;;4977645;28;20030;-74
2022/01/28 00:49:26;;;;;;;16.38;2.03;;;7.10;99.90;;;;;;4984754;28;20093;-74
2022/01/28 00:51:52;;;;;;;18.33;2.15;;;7.10;99.90;;;;;;4989897;28;20126;-74
2022/01/28 00:54:18;;;;;;;17.48;2.72;;;7.10;99.90;;;;;;4986439;28;20532;-73
2022/01/28 00:56:44;;;;;;;19.17;2.20;;;7.10;99.90;;;;;;4981217;28;20027;-73
2022/01/28 00:59:10;;;;;;;19.95;2.72;;;7.20;99.90;;;;;;4981886;28;20046;-73
2022/01/28 01:01:37;;;;;;;18.05;2.17;;;7.20;99.90;;;;;;4973779;28;20061;-73
2022/01/28 01:04:03;;;;;;;16.63;1.98;;;7.10;99.90;;;;;;4988846;28;20138;-73
2022/01/28 01:06:30;;;;;;;17.20;2.53;;;7.10;99.90;;;;;;4990130;28;20286;-74
2022/01/28 01:08:55;;;;;;;18.92;2.97;;;7.20;99.90;;;;;;5015644;28;20057;-73
2022/01/28 01:11:22;;;;;;;26.10;3.30;;;7.10;99.90;;;;;;5015385;28;20033;-73
2022/01/28 01:13:49;;;;;;;22.50;2.80;;;7.10;99.90;;;;;;5017981;28;20013;-73
2022/01/28 01:16:20;;;;;;;17.50;2.28;;;7.10;99.90;;;;;;5031860;28;20494;-74
2022/01/28 01:18:55;;;;;;;19.88;2.50;;;7.10;99.90;;;;;;5017637;28;20149;-74
2022/01/28 01:21:26;;;;;;;25.58;3.22;;;7.10;99.90;;;;;;5012401;28;20038;-73
2022/01/28 01:23:57;;;;;;;22.92;2.78;;;7.10;99.90;;;;;;5028277;28;20056;-73
2022/01/28 01:26:35;;;;;;;19.83;2.35;;;7.10;99.90;;;;;;5005179;28;20121;-73
2022/01/28 01:29:02;;;;;;;19.55;2.63;;;7.10;99.90;;;;;;5011799;28;20038;-73
2022/01/28 01:31:27;;;;;;;24.63;2.65;;;7.10;99.90;;;;;;5026734;28;20083;-73
2022/01/28 01:34:04;;;;;;;17.02;2.30;;;7.10;99.90;;;;;;5031489;28;20092;-73
2022/01/28 01:36:30;;;;;;;18.67;2.78;;;7.10;99.90;;;;;;5031984;28;20037;-74
2022/01/28 01:38:56;;;;;;;20.15;2.85;;;7.10;99.90;;;;;;5029915;28;20309;-73
2022/01/28 01:44:26;;;;;;;20.33;2.55;;;7.10;99.90;;;;;;4991532;28;20096;-74
2022/01/28 01:52:26;;;;;;;23.83;2.60;;;7.20;99.90;;;;;;5017108;28;20181;-74
2022/01/28 01:54:52;;;;;;;18.92;2.35;;;7.20;99.90;;;;;;5019651;28;20025;-74
2022/01/28 01:57:18;;;;;;;26.65;2.85;;;7.20;99.90;;;;;;5011493;28;20014;-74
2022/01/28 01:59:44;;;;;;;20.52;2.47;;;7.20;99.90;;;;;;5017163;28;20087;-74
2022/01/28 02:02:11;;;;;;;19.70;2.60;;;7.20;99.90;;;;;;5029274;28;20084;-74
2022/01/28 02:04:37;;;;;;;20.58;2.30;;;7.20;99.90;;;;;;5029135;28;20076;-74
2022/01/28 02:07:04;;;;;;;16.20;1.73;;;7.30;99.90;;;;;;5028889;28;20032;-74
2022/01/28 02:09:30;;;;;;;16.35;2.17;;;7.30;99.90;;;;;;5024388;28;20030;-73
2022/01/28 02:11:55;;;;;;;13.50;1.83;;;7.20;99.90;;;;;;5029113;28;20038;-73
2022/01/28 02:14:21;;;;;;;13.15;1.55;;;7.10;99.90;;;;;;5011040;28;20168;-73
2022/01/28 02:16:47;;;;;;;18.20;2.00;;;7.10;99.90;;;;;;5009801;28;20029;-73
2022/01/28 02:19:12;;;;;;;12.52;1.60;;;7.00;99.90;;;;;;5010041;28;20033;-74
2022/01/28 02:21:48;;;;;;;15.98;2.15;;;7.00;99.90;;;;;;5025961;28;20048;-74
2022/01/28 02:24:19;;;;;;;18.50;2.70;;;6.90;99.90;;;;;;5027916;28;20037;-74
2022/01/28 02:26:45;;;;;;;15.63;2.35;;;6.90;99.90;;;;;;5014926;28;20076;-74
2022/01/28 02:29:17;;;;;;;13.18;2.20;;;6.90;99.90;;;;;;5022171;28;20037;-74
2022/01/28 02:31:43;;;;;;;18.85;2.50;;;6.90;99.90;;;;;;5029587;28;20383;-74
2022/01/28 02:34:11;;;;;;;21.58;2.83;;;6.90;99.90;;;;;;5012824;28;20026;-74
2022/01/28 02:36:37;;;;;;;20.67;2.88;;;6.90;99.90;;;;;;5028487;28;20040;-74
2022/01/28 02:39:04;;;;;;;16.30;2.80;;;7.00;99.90;;;;;;5013491;28;20045;-74
2022/01/28 02:41:35;;;;;;;20.73;3.13;;;7.00;99.90;;;;;;5027453;28;20018;-74
2022/01/28 02:44:38;;;;;;;18.65;2.67;;;7.00;99.90;;;;;;5029050;28;20044;-74
2022/01/28 02:47:05;;;;;;;18.55;2.53;;;7.00;99.90;;;;;;5029244;28;20117;-74
2022/01/28 02:49:36;;;;;;;20.40;2.90;;;7.00;99.90;;;;;;5009798;28;20128;-74
2022/01/28 02:52:03;;;;;;;28.95;3.88;;;7.00;99.90;;;;;;5029048;28;20068;-74
2022/01/28 02:54:29;;;;;;;19.83;2.42;;;7.00;99.90;;;;;;5012406;28;20061;-74
2022/01/28 02:57:01;;;;;;;19.77;2.60;;;7.00;99.90;;;;;;5024761;28;20144;-73
2022/01/28 02:59:26;;;;;;;20.30;2.63;;;7.00;99.90;;;;;;5010897;28;20038;-74
2022/01/28 03:01:52;;;;;;;23.20;2.70;;;7.00;99.90;;;;;;5012549;28;20049;-74
2022/01/28 03:06:58;;;;;;;15.73;2.30;;;7.00;99.90;;;;;;5011019;28;20069;-75
2022/01/28 03:09:24;;;;;;;17.58;2.58;;;7.00;99.90;;;;;;4997646;28;20159;-74
2022/01/28 03:12:11;;;;;;;22.27;3.13;;;6.90;99.90;;;;;;5028371;28;20467;-74
2022/01/28 03:14:54;;;;;;;18.20;2.38;;;6.90;99.90;;;;;;5020534;28;20117;-74
2022/01/28 03:20:16;;;;;;;13.02;2.40;;;6.90;99.90;;;;;;5020035;28;20088;-74
2022/01/28 03:22:42;;;;;;;19.55;3.20;;;6.90;99.90;;;;;;5009284;28;20026;-74
2022/01/28 03:25:08;;;;;;;21.05;2.10;;;6.90;99.90;;;;;;5024106;28;20383;-73
2022/01/28 03:30:09;;;;;;;17.10;2.20;;;6.90;99.90;;;;;;5026602;28;20076;-74
2022/01/28 03:32:34;;;;;;;12.32;1.98;;;6.80;99.90;;;;;;5017545;28;20021;-73
2022/01/28 03:35:00;;;;;;;18.83;1.80;;;6.80;99.90;;;;;;5024445;28;20530;-74
2022/01/28 03:37:27;;;;;;;11.05;1.75;;;6.80;99.90;;;;;;5021577;28;20630;-74
2022/01/28 03:39:53;;;;;;;12.27;2.13;;;6.80;99.90;;;;;;5020386;28;20029;-73
2022/01/28 03:42:18;;;;;;;15.57;1.90;;;6.80;99.90;;;;;;5031629;28;20028;-74
2022/01/28 03:44:44;;;;;;;9.63;2.00;;;6.80;99.90;;;;;;5031893;28;20057;-74
2022/01/28 03:47:09;;;;;;;13.77;1.73;;;6.70;99.90;;;;;;5032201;28;20029;-74
2022/01/28 03:49:35;;;;;;;22.15;2.83;;;6.70;99.90;;;;;;5015599;28;20033;-74
2022/01/28 03:52:00;;;;;;;17.95;1.80;;;6.70;99.90;;;;;;5032175;28;20064;-74
2022/01/28 03:54:26;;;;;;;14.13;2.03;;;6.70;99.90;;;;;;5031901;28;20096;-74
2022/01/28 03:56:52;;;;;;;17.25;2.40;;;6.70;99.90;;;;;;5031549;28;20063;-74
2022/01/28 03:59:17;;;;;;;16.20;2.25;;;6.70;99.90;;;;;;5031723;28;20104;-74
2022/01/28 04:01:45;;;;;;;16.10;2.33;;;6.70;99.90;;;;;;5031677;28;20133;-74
2022/01/28 04:12:19;;;;;;;22.95;2.70;;;6.60;99.90;;;;;;5029202;28;20041;-74
2022/01/28 04:15:05;;;;;;;17.77;2.42;;;6.60;99.90;;;;;;5018431;28;20467;-74
2022/01/28 04:17:31;;;;;;;13.27;1.85;;;6.50;99.90;;;;;;5029069;28;20338;-73
2022/01/28 04:19:57;;;;;;;21.83;2.20;;;6.50;99.90;;;;;;5017414;28;20401;-74
2022/01/28 04:22:23;;;;;;;16.00;2.10;;;6.50;99.90;;;;;;5032973;28;20043;-74
2022/01/28 04:24:48;;;;;;;20.35;2.30;;;6.50;99.90;;;;;;5030373;28;20128;-73
2022/01/28 04:27:14;;;;;;;15.35;2.38;;;6.50;99.90;;;;;;5029861;28;20501;-73
2022/01/28 04:29:40;;;;;;;23.30;2.70;;;6.50;99.90;;;;;;5030753;28;20559;-74
2022/01/28 04:32:06;;;;;;;18.90;1.92;;;6.50;99.90;;;;;;5031180;28;20029;-74
2022/01/28 04:34:32;;;;;;;17.15;2.72;;;6.40;99.90;;;;;;5017533;28;20026;-74
2022/01/28 04:37:25;;;;;;;12.32;2.20;;;6.40;99.90;;;;;;5011637;28;20107;-74
2022/01/28 04:39:58;;;;;;;17.08;2.00;;;6.40;99.90;;;;;;5011961;28;20041;-74
2022/01/28 04:52:53;;;;;;;13.05;1.70;;;6.40;99.90;;;;;;5026378;28;20150;-73
2022/01/28 05:00:45;;;;;;;19.20;2.10;;;6.30;99.90;;;;;;5011563;28;20058;-73
2022/01/28 05:03:43;;;;;;;13.43;1.90;;;6.30;99.90;;;;;;5024419;28;20478;-73
2022/01/28 05:27:43;;;;;;;12.85;1.90;;;6.00;99.90;;;;;;4988589;28;20550;-75
2022/01/28 05:30:09;;;;;;;10.80;1.88;;;6.00;99.90;;;;;;4987195;28;20081;-74
2022/01/28 05:32:34;;;;;;;16.85;2.22;;;5.90;99.90;;;;;;4984612;28;20401;-74
2022/01/28 05:35:00;;;;;;;9.50;1.80;;;5.90;99.90;;;;;;4987213;28;20042;-74
2022/01/28 05:37:25;;;;;;;12.98;2.00;;;5.80;99.90;;;;;;4987220;28;20502;-74
2022/01/28 05:39:51;;;;;;;18.27;2.10;;;5.80;99.90;;;;;;4983818;28;20039;-74
2022/01/28 05:42:17;;;;;;;12.38;2.28;;;5.70;99.90;;;;;;4985224;28;20026;-74
2022/01/28 05:44:42;;;;;;;11.27;2.25;;;5.70;99.90;;;;;;4987299;28;20062;-74
2022/01/28 05:47:13;;;;;;;19.55;1.92;;;5.70;99.90;;;;;;4984312;28;20073;-74
2022/01/28 05:49:39;;;;;;;17.75;2.38;;;5.60;99.90;;;;;;4982682;28;20030;-74
2022/01/28 05:52:05;;;;;;;14.57;2.10;;;5.60;99.90;;;;;;4986352;28;20380;-75
2022/01/28 05:54:31;;;;;;;20.58;2.38;;;5.60;99.90;;;;;;5028713;28;20075;-73
2022/01/28 05:56:56;;;;;;;20.33;2.60;;;5.60;99.90;;;;;;5032378;28;20029;-75
2022/01/28 05:59:22;;;;;;;22.33;2.55;;;5.60;99.90;;;;;;5031208;28;20033;-73
2022/01/28 06:01:47;;;;;;;27.17;2.72;;;5.60;99.90;;;;;;5048313;28;20144;-73
2022/01/28 06:04:15;;;;;;;22.73;3.03;;;5.60;99.90;;;;;;5049608;28;20021;-73
2022/01/28 06:06:41;;;;;;;19.60;2.95;;;5.60;99.90;;;;;;5032817;28;20386;-76
2022/01/28 06:09:07;;;;;;;18.35;2.25;;;5.60;99.90;;;;;;5035748;28;20163;-73
2022/01/28 06:11:32;;;;;;;23.70;2.65;;;5.60;99.90;;;;;;5035335;28;20029;-75
2022/01/28 06:13:58;;;;;;;24.60;3.08;;;5.60;99.90;;;;;;5051033;28;20017;-74
2022/01/28 06:16:23;;;;;;;26.25;2.85;;;5.60;99.90;;;;;;5040131;28;20032;-74
2022/01/28 06:18:49;;;;;;;20.33;2.47;;;5.70;99.90;;;;;;5039349;28;20017;-73
2022/01/28 06:21:16;;;;;;;21.60;3.20;;;5.70;99.90;;;;;;5034790;28;20139;-73
2022/01/28 06:23:41;;;;;;;18.20;2.78;;;5.70;99.90;;;;;;5037345;28;20495;-73
2022/01/28 06:26:07;;;;;;;27.45;2.40;;;5.60;99.90;;;;;;5028997;28;20100;-73
2022/01/28 06:28:33;;;;;;;16.42;2.38;;;5.60;99.90;;;;;;5028213;28;20106;-73
2022/01/28 06:30:59;;;;;;;20.92;2.50;;;5.60;99.90;;;;;;5036882;28;20451;-73
2022/01/28 06:33:25;;;;;;;16.98;2.20;;;5.60;99.90;;;;;;5030072;28;20013;-73
2022/01/28 06:35:51;;;;;;;17.85;2.42;;;5.60;99.90;;;;;;5031189;28;20381;-73
2022/01/28 06:38:16;;;;;;;24.27;2.55;;;5.60;99.90;;;;;;5034317;28;20096;-72
2022/01/28 06:40:43;;;;;;;20.27;2.15;;;5.60;99.90;;;;;;5028694;28;20582;-72
2022/01/28 06:43:10;;;;;;;23.85;2.55;;;5.60;99.90;;;;;;5031989;28;20088;-73
2022/01/28 06:45:36;;;;;;;20.98;3.05;;;5.60;99.90;;;;;;5028973;28;20080;-73
2022/01/28 06:48:02;;;;;;;16.98;2.30;;;5.50;99.90;;;;;;5033720;28;20164;-73
2022/01/28 06:50:28;;;;;;;22.88;2.35;;;5.50;99.90;;;;;;5029349;28;20030;-73
2022/01/28 06:52:53;;;;;;;16.70;2.42;;;5.50;99.90;;;;;;5035972;28;20022;-73
2022/01/28 06:55:19;;;;;;;19.52;2.30;;;5.50;99.90;;;;;;5029179;28;20040;-72
2022/01/28 06:57:45;;;;;;;17.73;2.40;;;5.50;99.90;;;;;;5032431;28;20348;-73
2022/01/28 07:00:11;;;;;;;10.90;2.20;;;5.50;99.90;;;;;;5029141;28;20095;-74
2022/01/28 07:02:37;;;;;;;14.75;2.47;;;5.40;99.90;;;;;;5034441;28;20049;-73
2022/01/28 07:05:04;;;;;;;15.60;2.40;;;5.40;99.90;;;;;;5037571;28;20568;-73
2022/01/28 07:07:30;;;;;;;18.27;2.30;;;5.40;99.90;;;;;;5031629;28;20340;-73
2022/01/28 07:09:56;;;;;;;14.05;2.40;;;5.20;99.90;;;;;;5037327;28;20041;-74
2022/01/28 07:12:22;;;;;;;21.85;2.90;;;5.20;99.90;;;;;;5035248;28;20033;-73
2022/01/28 07:14:48;;;;;;;18.40;2.97;;;5.10;99.90;;;;;;5034608;28;20483;-72
2022/01/28 07:17:14;;;;;;;16.33;2.92;;;5.10;99.90;;;;;;5014849;28;20034;-72
2022/01/28 07:19:40;;;;;;;13.77;2.78;;;5.00;99.90;;;;;;5033027;28;20046;-74
2022/01/28 07:22:06;;;;;;;18.17;2.83;;;5.00;99.90;;;;;;5038967;28;20417;-74
2022/01/28 07:24:32;;;;;;;13.88;2.20;;;4.90;99.90;;;;;;5035164;28;20440;-74
2022/01/28 07:26:57;;;;;;;16.17;2.40;;;4.90;99.90;;;;;;5031315;28;20030;-73
2022/01/28 07:29:27;;;;;;;13.07;2.70;;;4.90;99.90;;;;;;5030910;28;20133;-73
2022/01/28 07:31:53;;;;;;;16.55;2.75;;;4.80;99.90;;;;;;5034085;28;20033;-74
2022/01/28 07:34:19;;;;;;;14.90;2.50;;;4.80;99.90;;;;;;5035932;28;20087;-74
2022/01/28 07:36:45;;;;;;;18.83;2.60;;;4.80;99.90;;;;;;5032518;28;20022;-74
2022/01/28 07:39:10;;;;;;;15.73;2.10;;;4.70;99.90;;;;;;5032443;28;20033;-73
2022/01/28 07:41:36;;;;;;;16.30;2.85;;;4.70;99.90;;;;;;5037338;28;20021;-74
2022/01/28 07:44:03;;;;;;;17.05;2.83;;;4.70;99.90;;;;;;5032079;28;20116;-74
2022/01/28 07:46:28;;;;;;;19.58;2.90;;;4.70;99.90;;;;;;5042867;28;20017;-74
2022/01/28 07:48:54;;;;;;;21.17;2.80;;;4.60;99.90;;;;;;5042427;28;20028;-73
2022/01/28 07:51:20;;;;;;;21.33;2.75;;;4.60;99.90;;;;;;5043591;28;20033;-74
2022/01/28 07:53:45;;;;;;;14.65;2.38;;;4.60;99.90;;;;;;5049300;28;20025;-74
2022/01/28 07:56:12;;;;;;;13.75;2.63;;;4.60;99.90;;;;;;5034068;28;20336;-73
2022/01/28 07:58:37;;;;;;;19.20;2.72;;;4.60;99.90;;;;;;5052134;28;20032;-73
2022/01/28 08:01:03;;;;;;;12.88;2.40;;;4.50;99.90;;;;;;5033868;28;20485;-73
2022/01/28 08:03:29;;;;;;;22.98;2.50;;;4.50;99.90;;;;;;5052198;28;20043;-73
2022/01/28 08:05:54;;;;;;;22.05;2.50;;;4.60;99.90;;;;;;5051989;28;20152;-73
2022/01/28 08:08:21;;;;;;;25.55;2.80;;;4.60;99.90;;;;;;5052112;28;20029;-74
2022/01/28 08:10:47;;;;;;;19.58;2.97;;;4.60;99.90;;;;;;5040073;28;20024;-73
2022/01/28 08:13:13;;;;;;;17.27;2.70;;;4.60;99.90;;;;;;5039739;28;20076;-73
2022/01/28 08:15:40;;;;;;;20.48;3.30;;;4.70;99.90;;;;;;5031756;28;20029;-74
2022/01/28 08:18:06;;;;;;;20.50;3.67;;;4.70;99.90;;;;;;5031874;28;20028;-74
2022/01/28 08:20:33;;;;;;;21.35;3.80;;;4.70;99.90;;;;;;5031270;28;20052;-74
2022/01/28 08:23:00;;;;;;;15.85;2.75;;;4.80;99.90;;;;;;5037141;28;20021;-73
2022/01/28 08:25:27;;;;;;;27.60;4.43;;;4.80;99.90;;;;;;5036678;28;20036;-74
2022/01/28 08:27:53;;;;;;;21.13;3.40;;;4.80;99.90;;;;;;5039029;28;20053;-73
2022/01/28 08:30:22;;;;;;;26.40;3.30;;;4.80;99.90;;;;;;5044776;28;20025;-74
2022/01/28 08:32:48;;;;;;;24.35;3.47;;;4.80;99.90;;;;;;5039640;28;20340;-74
2022/01/28 08:35:16;;;;;;;21.90;3.20;;;4.80;99.90;;;;;;5045329;28;20036;-74
2022/01/28 08:37:42;;;;;;;19.40;3.20;;;4.90;99.90;;;;;;5039834;28;20157;-73
2022/01/28 08:40:10;;;;;;;21.55;3.30;;;4.90;99.90;;;;;;5033364;28;20021;-73
2022/01/28 08:42:36;;;;;;;16.73;4.05;;;4.90;99.90;;;;;;5038811;28;20013;-73
2022/01/28 08:45:03;;;;;;;19.75;3.33;;;4.90;99.90;;;;;;5033443;28;20332;-74
2022/01/28 08:47:28;;;;;;;18.58;3.03;;;5.00;99.90;;;;;;5039248;28;20029;-74
2022/01/28 08:49:54;;;;;;;24.80;2.78;;;5.10;99.90;;;;;;5039173;28;20078;-74
2022/01/28 08:52:19;;;;;;;22.38;3.10;;;5.10;99.90;;;;;;5032571;28;20095;-74
2022/01/28 08:54:46;;;;;;;18.83;3.20;;;5.20;99.90;;;;;;5030912;28;20021;-73
2022/01/28 08:57:12;;;;;;;19.58;3.35;;;5.20;99.90;;;;;;5031202;28;20406;-73
2022/01/28 08:59:40;;;;;;;29.08;3.67;;;5.20;99.90;;;;;;5031380;28;20021;-73
2022/01/28 09:02:05;;;;;;;33.00;3.53;;;5.30;99.90;;;;;;5035884;28;20041;-73
2022/01/28 09:04:31;;;;;;;23.98;4.07;;;5.30;99.90;;;;;;5041070;28;20451;-73
2022/01/28 09:06:57;;;;;;;25.38;3.60;;;5.40;99.90;;;;;;5041745;28;20049;-73
2022/01/28 09:09:22;;;;;;;38.78;4.10;;;5.40;99.90;;;;;;5040744;28;20099;-73
2022/01/28 09:12:04;;;;;;;27.92;3.97;;;5.50;99.90;;;;;;5042984;28;20110;-73
2022/01/28 09:14:30;;;;;;;19.40;3.83;;;5.50;99.90;;;;;;5032624;28;20025;-74
2022/01/28 09:16:56;;;;;;;20.15;3.10;;;5.60;99.90;;;;;;5035000;28;20108;-74
2022/01/28 09:19:22;;;;;;;25.40;4.05;;;5.70;99.90;;;;;;5034737;28;20029;-74
2022/01/28 09:21:48;;;;;;;23.27;3.70;;;5.80;99.90;;;;;;5043709;28;20027;-74
2022/01/28 09:24:14;;;;;;;14.35;2.85;;;5.90;99.90;;;;;;5043343;28;20030;-74
2022/01/28 09:26:39;;;;;;;20.48;3.38;;;6.00;99.90;;;;;;5039564;28;20086;-74
2022/01/28 09:29:05;;;;;;;23.52;3.20;;;6.10;99.90;;;;;;5040105;28;20047;-74
2022/01/28 09:31:31;;;;;;;25.13;3.25;;;6.20;99.90;;;;;;5034682;28;20449;-74
2022/01/28 09:33:56;;;;;;;25.38;3.97;;;6.40;99.90;;;;;;5045311;28;20382;-74
2022/01/28 09:36:22;;;;;;;23.13;4.00;;;6.50;99.90;;;;;;5035520;28;20398;-74
2022/01/28 09:38:48;;;;;;;26.88;4.20;;;6.60;99.90;;;;;;5034479;28;20025;-73
2022/01/28 09:41:15;;;;;;;24.88;4.03;;;6.70;99.90;;;;;;5034387;28;20419;-74
2022/01/28 09:43:43;;;;;;;18.58;3.70;;;6.80;99.90;;;;;;5045190;28;20024;-74
2022/01/28 09:46:09;;;;;;;23.48;3.78;;;7.00;99.90;;;;;;5029374;28;20098;-74
2022/01/28 09:48:35;;;;;;;24.50;3.70;;;7.10;99.90;;;;;;5030264;28;20021;-74
2022/01/28 09:51:03;;;;;;;23.27;3.58;;;7.20;99.90;;;;;;5035969;28;20182;-75
2022/01/28 09:53:29;;;;;;;29.17;4.18;;;7.20;99.90;;;;;;5030263;28;20502;-74
2022/01/28 09:55:55;;;;;;;27.23;3.78;;;7.40;99.90;;;;;;5035847;28;20025;-75
2022/01/28 09:58:21;;;;;;;16.77;3.13;;;7.40;99.90;;;;;;5038071;28;20037;-74
2022/01/28 10:00:47;;;;;;;25.17;3.58;;;7.60;99.90;;;;;;5010150;28;20689;-75
2022/01/28 10:03:15;;;;;;;21.30;3.13;;;7.70;99.90;;;;;;5012498;28;20033;-75
2022/01/28 10:05:42;;;;;;;18.75;2.67;;;7.70;99.90;;;;;;5029627;28;20018;-74
2022/01/28 10:08:16;;;;;;;22.05;3.05;;;7.80;99.90;;;;;;5029719;28;20116;-74
2022/01/28 10:10:49;;;;;;;20.70;3.35;;;7.90;99.90;;;;;;5029580;28;20025;-75
2022/01/28 10:13:25;;;;;;;21.27;3.17;;;8.00;99.90;;;;;;5029537;28;20518;-74
2022/01/28 10:16:11;;;;;;;21.90;2.95;;;8.00;99.90;;;;;;5029829;28;20041;-75
2022/01/28 10:18:57;;;;;;;15.85;3.17;;;8.10;99.90;;;;;;5029436;28;20029;-74
2022/01/28 10:21:27;;;;;;;20.55;3.22;;;8.20;99.90;;;;;;5031413;28;20119;-75
2022/01/28 10:24:00;;;;;;;21.35;2.85;;;8.30;99.90;;;;;;5036924;28;20071;-74
2022/01/28 10:26:57;;;;;;;22.27;2.70;;;8.40;99.90;;;;;;5030712;28;20097;-75
2022/01/28 10:29:31;;;;;;;18.40;2.80;;;8.50;99.90;;;;;;5028083;28;20060;-75
2022/01/28 10:32:07;;;;;;;20.00;2.88;;;8.50;99.90;;;;;;5029283;28;20053;-75
2022/01/28 10:34:35;;;;;;;22.20;3.35;;;8.50;99.90;;;;;;5029655;28;20060;-75
2022/01/28 10:37:15;;;;;;;17.02;3.40;;;8.50;99.90;;;;;;5029201;28;20112;-75
2022/01/28 10:39:50;;;;;;;16.42;2.70;;;8.60;99.90;;;;;;5029417;28;20088;-75
2022/01/28 10:42:32;;;;;;;19.60;2.97;;;8.70;99.90;;;;;;5029369;28;20049;-75
2022/01/28 10:45:00;;;;;;;14.18;2.60;;;8.70;99.90;;;;;;5029582;28;20105;-74
2022/01/28 10:47:34;;;;;;;20.42;2.97;;;8.80;99.90;;;;;;5029361;28;20021;-74
2022/01/28 10:50:00;;;;;;;22.10;3.08;;;8.80;99.90;;;;;;5029309;28;20079;-74
2022/01/28 10:52:33;;;;;;;21.17;2.67;;;8.90;99.90;;;;;;5028664;28;20029;-75
2022/01/28 10:55:01;;;;;;;21.90;2.88;;;9.00;99.90;;;;;;5029425;28;20036;-76
2022/01/28 10:57:30;;;;;;;22.52;2.92;;;9.10;99.90;;;;;;5028825;28;20060;-76
2022/01/28 10:59:56;;;;;;;20.10;3.22;;;9.10;99.90;;;;;;5031590;28;20382;-75
2022/01/28 11:02:25;;;;;;;20.65;3.83;;;9.20;99.90;;;;;;5038257;28;20095;-75
2022/01/28 11:04:54;;;;;;;16.10;2.42;;;9.40;99.90;;;;;;5039944;28;20025;-75
2022/01/28 11:07:19;;;;;;;19.08;2.90;;;9.40;99.90;;;;;;5029433;28;20690;-75
2022/01/28 11:09:46;;;;;;;17.95;2.30;;;9.40;99.90;;;;;;5035050;28;20021;-75
2022/01/28 11:12:13;;;;;;;13.52;2.40;;;9.40;99.90;;;;;;5018665;28;20285;-74
2022/01/28 11:14:39;;;;;;;11.32;2.40;;;9.40;99.90;;;;;;5030998;28;20030;-75
2022/01/28 11:17:05;;;;;;;15.88;2.72;;;9.30;99.90;;;;;;5028995;28;20033;-75
2022/01/28 11:19:35;;;;;;;20.60;2.60;;;9.20;99.90;;;;;;5029114;28;20053;-75
2022/01/28 11:22:10;;;;;;;20.25;2.45;;;9.20;99.90;;;;;;5029065;28;20026;-75
2022/01/28 11:25:06;;;;;;;8.30;1.55;;;9.30;99.90;;;;;;5028742;28;20022;-75
2022/01/28 11:27:35;;;;;;;18.90;2.45;;;9.30;99.90;;;;;;5029108;28;20120;-75
2022/01/28 11:30:26;;;;;;;18.30;2.80;;;9.30;99.90;;;;;;5028842;28;20041;-75
2022/01/28 11:32:59;;;;;;;20.15;2.92;;;9.20;99.90;;;;;;5029129;28;20053;-74
2022/01/28 11:35:25;;;;;;;10.55;2.45;;;9.10;99.90;;;;;;5029837;28;20055;-76
2022/01/28 11:37:53;;;;;;;12.18;2.20;;;9.00;99.90;;;;;;5029327;28;20040;-74
2022/01/28 11:40:19;;;;;;;15.60;2.70;;;9.00;99.90;;;;;;5029725;28;20480;-74
2022/01/28 11:42:45;;;;;;;15.65;2.35;;;9.10;99.90;;;;;;5029898;28;20022;-75
2022/01/28 11:45:11;;;;;;;16.73;2.80;;;9.10;99.90;;;;;;5029073;28;20100;-76
2022/01/28 11:47:53;;;;;;;18.25;2.60;;;9.10;99.90;;;;;;5029575;28;20351;-76
2022/01/28 11:50:22;;;;;;;15.90;3.25;;;9.10;99.90;;;;;;5033825;28;20402;-75
2022/01/28 11:52:53;;;;;;;16.63;3.17;;;9.20;99.90;;;;;;5032788;28;20462;-76
2022/01/28 11:55:25;;;;;;;14.23;3.22;;;9.30;99.90;;;;;;5032522;28;20430;-76
2022/01/28 11:57:54;;;;;;;15.38;3.50;;;9.50;99.90;;;;;;5039249;28;20033;-75
2022/01/28 12:00:22;;;;;;;22.60;4.18;;;9.50;99.90;;;;;;5034863;28;20045;-76
2022/01/28 12:02:50;;;;;;;22.92;3.75;;;9.50;99.90;;;;;;5037710;28;20129;-75
2022/01/28 12:05:25;;;;;;;26.17;3.72;;;9.40;99.90;;;;;;5037281;28;20013;-75
2022/01/28 12:07:52;;;;;;;16.70;3.25;;;9.40;99.90;;;;;;5032531;28;20025;-75
2022/01/28 12:10:18;;;;;;;20.73;3.95;;;9.40;99.90;;;;;;5031791;28;20029;-75
2022/01/28 12:12:45;;;;;;;16.50;2.88;;;9.40;99.90;;;;;;5039991;28;20347;-75
2022/01/28 12:15:14;;;;;;;18.35;3.83;;;9.50;99.90;;;;;;5034208;28;20021;-75
2022/01/28 12:17:42;;;;;;;15.00;3.55;;;9.60;99.90;;;;;;5016015;28;20128;-75
2022/01/28 12:20:14;;;;;;;15.52;3.97;;;9.70;99.90;;;;;;5031315;28;20100;-75
2022/01/28 12:23:09;;;;;;;12.75;3.28;;;9.80;99.90;;;;;;5003294;28;20022;-75
2022/01/28 12:25:35;;;;;;;19.30;3.40;;;9.90;99.90;;;;;;5012525;28;20041;-75
2022/01/28 12:28:24;;;;;;;13.85;2.88;;;10.00;99.90;;;;;;5036586;28;20427;-75
2022/01/28 12:30:51;;;;;;;20.88;3.30;;;10.00;99.90;;;;;;5029993;28;20044;-75
2022/01/28 12:33:24;;;;;;;16.35;2.97;;;10.00;99.90;;;;;;5036535;28;20073;-76
2022/01/28 12:35:53;;;;;;;16.73;3.38;;;10.00;99.90;;;;;;5042832;28;20084;-75
2022/01/28 12:38:25;;;;;;;12.95;3.22;;;10.00;99.90;;;;;;5035036;28;20121;-76
2022/01/28 12:40:54;;;;;;;18.08;3.33;;;10.00;99.90;;;;;;5035876;28;20033;-76
2022/01/28 12:43:24;;;;;;;14.85;2.97;;;10.10;99.90;;;;;;5037588;28;20022;-75
2022/01/28 12:46:01;;;;;;;13.73;2.55;;;10.10;99.90;;;;;;5034653;28;20021;-76
2022/01/28 12:48:27;;;;;;;10.48;2.90;;;10.20;99.90;;;;;;5031918;28;20022;-75
2022/01/28 12:50:54;;;;;;;18.05;3.35;;;10.20;99.90;;;;;;5032584;28;20022;-75
2022/01/28 12:53:32;;;;;;;16.45;3.25;;;10.10;99.90;;;;;;5030895;28;20045;-75
2022/01/28 12:55:59;;;;;;;13.70;3.88;;;10.20;99.90;;;;;;5034150;28;20100;-75
2022/01/28 12:58:40;;;;;;;13.88;3.45;;;10.20;99.90;;;;;;5031293;28;20353;-76
2022/01/28 13:01:12;;;;;;;18.88;3.65;;;10.20;99.90;;;;;;5028836;28;20085;-75
2022/01/28 13:03:45;;;;;;;22.38;4.10;;;10.20;99.90;;;;;;5031518;28;20025;-76
2022/01/28 13:09:09;;;;;;;17.52;4.13;;;10.30;99.90;;;;;;5031688;28;20123;-76
2022/01/28 13:11:41;;;;;;;18.73;3.88;;;10.30;99.90;;;;;;5031582;28;20078;-76
2022/01/28 13:14:06;;;;;;;20.73;4.57;;;10.30;99.90;;;;;;5035043;28;20514;-73
2022/01/28 13:16:38;;;;;;;18.15;3.97;;;10.30;99.90;;;;;;5033218;28;20047;-75
2022/01/28 13:19:06;;;;;;;11.88;3.63;;;10.30;99.90;;;;;;5034068;28;20033;-75
2022/01/28 13:21:33;;;;;;;13.07;2.50;;;10.30;99.90;;;;;;5032993;28;20029;-74
2022/01/28 13:24:18;;;;;;;13.20;2.45;;;10.20;99.90;;;;;;5033917;28;20101;-76
2022/01/28 13:27:04;;;;;;;10.82;3.08;;;10.20;99.90;;;;;;5032778;28;20018;-74
2022/01/28 13:29:33;;;;;;;11.80;3.10;;;10.10;99.90;;;;;;5031439;28;20091;-75
2022/01/28 13:32:00;;;;;;;10.27;2.40;;;10.10;99.90;;;;;;5030436;28;20022;-75
2022/01/28 13:34:26;;;;;;;12.95;2.80;;;10.00;99.90;;;;;;5030767;28;20539;-76
2022/01/28 13:36:55;;;;;;;16.27;2.90;;;10.00;99.90;;;;;;5030173;28;20108;-76
2022/01/28 13:39:24;;;;;;;11.73;2.25;;;9.90;99.90;;;;;;5030680;28;20068;-76
2022/01/28 13:42:06;;;;;;;10.13;2.40;;;9.80;99.90;;;;;;5029585;28;20412;-75
2022/01/28 13:44:34;;;;;;;14.65;3.28;;;9.70;99.90;;;;;;5030130;28;20069;-75
2022/01/28 13:47:02;;;;;;;7.38;2.33;;;9.70;99.90;;;;;;5030243;28;20029;-75
2022/01/28 13:49:39;;;;;;;18.27;3.22;;;9.60;99.90;;;;;;5030188;28;20148;-75
2022/01/28 13:52:20;;;;;;;11.23;2.40;;;9.70;99.90;;;;;;5028990;28;20116;-75
2022/01/28 13:54:46;;;;;;;9.68;2.15;;;9.60;99.90;;;;;;5029775;28;20025;-75
2022/01/28 13:57:12;;;;;;;11.77;1.85;;;9.60;99.90;;;;;;5029879;28;20413;-75
2022/01/28 13:59:42;;;;;;;11.50;2.35;;;9.50;99.90;;;;;;5028787;28;20502;-75
2022/01/28 14:02:16;;;;;;;12.20;2.40;;;9.60;99.90;;;;;;5048620;28;20421;-76
2022/01/28 14:04:44;;;;;;;9.25;1.98;;;9.50;99.90;;;;;;5051709;28;20025;-73
2022/01/28 14:07:17;;;;;;;8.30;1.80;;;9.60;99.90;;;;;;5051108;28;20025;-74
2022/01/28 14:09:57;;;;;;;13.00;2.60;;;9.70;99.90;;;;;;5050831;28;20455;-74
2022/01/28 14:12:53;;;;;;;11.98;2.20;;;9.70;99.90;;;;;;5049535;28;20429;-73
2022/01/28 14:15:38;;;;;;;7.65;2.22;;;9.80;99.90;;;;;;5051427;28;20116;-74
2022/01/28 14:18:05;;;;;;;10.73;2.83;;;9.80;99.90;;;;;;5050405;28;20037;-74
2022/01/28 14:20:31;;;;;;;10.90;2.97;;;9.80;99.90;;;;;;5045650;28;20028;-75